Main page
METAR-TAF:

METAR-TAF

Airports :

Ventspils International Airport

Ventspils, Latvia

latitude: 57-21-28N, longitude: 021-32-39E, elevation: 6 m

Current weather observation

The report was made 28 minutes ago, at 10:20 UTC
Wind 7 kt from the Southwest, varying between South/Southwest and West
Temperature 6°C
Humidity 93%
Pressure 1015 hPa
Visibility 10 km or more
Few clouds at a height of 1000 ft
Scattered clouds at a height of 1400 ft

METAR: EVVA 201020Z AUTO 23007KT 200V260 9999 FEW010 SCT014 06/05 Q1015

Time: 12:48 (10:48 UTC)


TAF: missing

Weather observations and forecasts of more than 4000 airports (METAR and TAF reports).

The available stations are represented by yellow and red dots on the map.

Hover mouse over dot to see the name of the station.

Then click to see weather observations and forecasts.

To change the map : click on the green buttons with a black cross to zoom in, on the green button with a dash to zoom out, or on the green arrows for adjacent maps.


METAR-TAF: